FLL weather

Fort Lauderdale Hollywood International Airport
Fort Lauderdale, Florida, United States

Public forecast

Using degrees Fahrenheit for public forecast. Weather courtesy of forecast.io.

METAR (pilot weather report)

Retrieved 2017/10/24 05:53 UTC (51 minutes ago):

KFLL 240553Z COR 17007KT 10SM SCT160 BKN200 26/24 A2994 RMK AO2 SLP137 T02610239 10278 20261 58014

TAF (pilot weather forecast)

Retrieved 2017/10/24 06:25 UTC (19 minutes ago):

TAF KFLL 240520Z 2406/2506 15010KT P6SM FEW025 SCT120 BKN250 FM241300 16010KT P6SM VCSH SCT025 BKN040 OVC120 FM241700 17010KT 5SM SHRA VCTS SCT025CB BKN040 OVC080 FM250000 23005KT 5SM SHRA SCT025 BKN040 OVC080